Time;durP1;ratioP1;P1;durP2;ratioP2;P2;SDS_P1;SDS_P2;PMS_P1;PMS_P2;Temp;Humidity;BMP_temperature;BMP_pressure;BME280_temperature;BME280_humidity;BME280_pressure;Samples;Min_cycle;Max_cycle;Signal;HPM_P1;HPM_P2
2023/09/10 00:00:03;;;;;;;0.10;0.10;;;;;;;12.98;84.60;100388.09;5049811;28;20459;-69
2023/09/10 00:02:33;;;;;;;0.10;0.10;;;;;;;12.98;84.62;100394.38;5034757;28;20431;-69
2023/09/10 00:04:59;;;;;;;0.10;0.10;;;;;;;12.95;84.55;100392.19;5030239;28;20668;-69
2023/09/10 00:07:27;;;;;;;0.20;0.20;;;;;;;12.94;84.90;100406.19;5049935;28;20059;-69
2023/09/10 00:09:55;;;;;;;0.10;0.10;;;;;;;12.84;85.08;100385.06;5048835;28;20049;-71
2023/09/10 00:12:24;;;;;;;0.10;0.10;;;;;;;12.87;85.15;100393.56;5050030;28;20068;-70
2023/09/10 00:14:51;;;;;;;0.10;0.10;;;;;;;12.87;85.06;100396.31;5048455;28;20063;-70
2023/09/10 00:17:18;;;;;;;0.10;0.10;;;;;;;12.87;85.03;100396.31;5043962;28;20079;-69
2023/09/10 00:19:45;;;;;;;0.10;0.10;;;;;;;12.86;85.21;100386.44;5049719;28;20045;-68
2023/09/10 00:22:12;;;;;;;0.15;0.15;;;;;;;12.95;85.03;100397.69;5021830;28;20045;-68
2023/09/10 00:24:40;;;;;;;0.10;0.10;;;;;;;12.96;84.93;100391.09;5030018;28;20488;-69
2023/09/10 00:27:07;;;;;;;0.10;0.10;;;;;;;12.94;84.80;100387.81;5031876;28;20045;-69
2023/09/10 00:29:36;;;;;;;0.20;0.20;;;;;;;12.90;84.42;100383.97;5032114;28;20084;-71
2023/09/10 00:32:04;;;;;;;0.10;0.10;;;;;;;12.94;84.01;100396.03;5062682;28;20044;-68
2023/09/10 00:34:31;;;;;;;;;;;;;;;12.91;84.06;100391.91;5068726;28;20101;-68
2023/09/10 00:36:57;;;;;;;0.10;0.10;;;;;;;12.89;84.14;100391.38;5032809;28;20051;-70
2023/09/10 00:39:25;;;;;;;0.10;0.10;;;;;;;12.88;84.04;100395.22;5050425;28;20048;-68
2023/09/10 00:41:55;;;;;;;0.10;0.10;;;;;;;12.88;83.76;100397.97;5041056;28;20045;-69
2023/09/10 00:44:23;;;;;;;0.10;0.10;;;;;;;12.84;83.81;100390.53;5066266;28;20044;-69
2023/09/10 00:46:53;;;;;;;0.10;0.10;;;;;;;12.81;83.80;100389.19;5044519;28;20132;-70
2023/09/10 00:49:21;;;;;;;0.10;0.10;;;;;;;12.80;83.73;100384.81;5050454;28;20052;-69
2023/09/10 00:51:49;;;;;;;0.10;0.10;;;;;;;12.78;83.61;100389.72;5057503;28;20041;-69
2023/09/10 00:54:17;;;;;;;0.10;0.10;;;;;;;12.77;83.85;100397.16;5065807;28;20079;-69
2023/09/10 00:56:45;;;;;;;0.10;0.10;;;;;;;12.78;83.75;100397.94;5068843;28;20044;-69
2023/09/10 00:59:12;;;;;;;0.10;0.10;;;;;;;12.80;84.06;100394.94;5050228;28;20083;-69
2023/09/10 01:01:39;;;;;;;0.10;0.10;;;;;;;12.83;84.15;100389.75;5054273;28;20103;-69
2023/09/10 01:04:09;;;;;;;0.13;0.13;;;;;;;12.86;84.22;100399.31;5051536;28;20073;-69
2023/09/10 01:06:38;;;;;;;0.17;0.17;;;;;;;12.81;83.88;100391.94;5051611;28;20397;-68
2023/09/10 01:09:05;;;;;;;0.10;0.10;;;;;;;12.85;83.85;100395.78;5033798;28;20531;-68
2023/09/10 01:11:43;;;;;;;0.15;0.15;;;;;;;12.83;84.06;100388.91;5055650;28;20053;-69
2023/09/10 01:14:18;;;;;;;0.10;0.10;;;;;;;12.84;84.24;100387.81;5025063;28;20048;-68
2023/09/10 01:16:51;;;;;;;0.10;0.10;;;;;;;12.85;83.93;100394.94;5033992;28;20759;-68
2023/09/10 01:19:54;;;;;;;0.20;0.20;;;;;;;12.82;83.74;100390.84;5033800;28;20076;-68
2023/09/10 01:22:31;;;;;;;0.10;0.10;;;;;;;12.82;83.40;100399.06;5052195;28;20399;-69
2023/09/10 01:25:00;;;;;;;;;;;;;;;12.82;83.34;100401.81;5054086;28;20131;-68
2023/09/10 01:27:27;;;;;;;0.10;0.10;;;;;;;12.81;82.84;100393.84;5051851;28;20291;-68
2023/09/10 01:29:54;;;;;;;0.10;0.10;;;;;;;12.80;82.84;100392.19;5042830;28;20059;-69
2023/09/10 01:32:26;;;;;;;0.10;0.10;;;;;;;12.78;82.70;100392.47;5035244;28;20045;-69
2023/09/10 01:35:00;;;;;;;0.10;0.10;;;;;;;12.75;82.30;100399.34;5051676;28;20053;-69
2023/09/10 01:37:32;;;;;;;0.10;0.10;;;;;;;12.73;81.96;100389.72;5051677;28;20049;-68
2023/09/10 01:40:03;;;;;;;0.10;0.10;;;;;;;12.67;81.98;100383.41;5040244;28;20102;-69
2023/09/10 01:42:31;;;;;;;0.10;0.10;;;;;;;12.69;82.05;100389.44;5055606;28;20055;-69
2023/09/10 01:44:59;;;;;;;0.10;0.10;;;;;;;12.66;81.88;100387.25;5035878;28;20494;-69
2023/09/10 01:47:26;;;;;;;0.10;0.10;;;;;;;12.62;81.61;100384.25;5049716;28;20630;-68
2023/09/10 01:49:53;;;;;;;0.10;0.10;;;;;;;12.62;81.57;100391.66;5049322;28;20052;-68
2023/09/10 01:52:21;;;;;;;0.10;0.10;;;;;;;12.56;81.59;100390.84;5057791;28;20114;-68
2023/09/10 01:54:47;;;;;;;0.10;0.10;;;;;;;12.59;81.80;100390.28;5047510;28;20061;-69
2023/09/10 01:57:16;;;;;;;0.10;0.10;;;;;;;12.58;81.77;100387.84;5036130;28;20048;-69
2023/09/10 01:59:42;;;;;;;0.10;0.10;;;;;;;12.57;81.85;100381.50;5071036;28;20126;-69
2023/09/10 02:02:10;;;;;;;0.10;0.10;;;;;;;12.55;81.63;100382.88;5071690;28;20476;-69
2023/09/10 02:04:38;;;;;;;0.10;0.10;;;;;;;12.56;81.34;100381.75;5060655;28;20414;-69
2023/09/10 02:07:05;;;;;;;0.10;0.10;;;;;;;12.54;80.90;100381.22;5031483;28;20060;-69
2023/09/10 02:09:32;;;;;;;0.10;0.10;;;;;;;12.52;80.93;100376.03;5063838;28;20144;-70
2023/09/10 02:12:00;;;;;;;0.10;0.10;;;;;;;12.51;80.72;100373.53;5050638;28;20546;-69
2023/09/10 02:14:28;;;;;;;0.10;0.10;;;;;;;12.49;80.65;100379.31;5069544;28;20044;-69
2023/09/10 02:16:55;;;;;;;0.10;0.10;;;;;;;12.47;80.60;100376.00;5069189;28;20135;-69
2023/09/10 02:19:22;;;;;;;0.10;0.10;;;;;;;12.45;80.38;100392.75;5069128;28;20044;-70
2023/09/10 02:21:50;;;;;;;0.10;0.10;;;;;;;12.42;80.21;100381.50;5051360;28;20044;-68
2023/09/10 02:24:17;;;;;;;0.10;0.10;;;;;;;12.41;80.33;100382.59;5048912;28;20534;-69
2023/09/10 02:26:45;;;;;;;0.10;0.10;;;;;;;12.38;80.17;100378.47;5052585;28;20049;-70
2023/09/10 02:29:11;;;;;;;0.10;0.10;;;;;;;12.40;80.48;100386.44;5057993;28;20373;-69
2023/09/10 02:31:40;;;;;;;0.10;0.10;;;;;;;12.37;80.67;100376.81;5050585;28;20626;-69
2023/09/10 02:34:08;;;;;;;0.10;0.10;;;;;;;12.37;81.08;100382.31;5051142;28;20095;-69
2023/09/10 02:36:34;;;;;;;0.10;0.10;;;;;;;12.36;80.96;100386.16;5053321;28;20068;-69
2023/09/10 02:39:01;;;;;;;0.10;0.10;;;;;;;12.29;80.79;100391.91;5059915;28;20052;-69
2023/09/10 02:41:28;;;;;;;0.10;0.10;;;;;;;12.20;81.29;100388.06;5066938;28;20071;-69
2023/09/10 02:43:55;;;;;;;0.10;0.10;;;;;;;12.15;81.40;100393.50;5058721;28;20095;-70
2023/09/10 02:46:25;;;;;;;0.10;0.10;;;;;;;12.15;81.49;100396.25;5066793;28;20527;-69
2023/09/10 02:48:53;;;;;;;0.10;0.10;;;;;;;12.01;81.81;100384.97;5052233;28;20209;-69
2023/09/10 02:51:22;;;;;;;0.10;0.10;;;;;;;12.13;81.47;100395.69;5066710;28;20056;-70
2023/09/10 02:53:50;;;;;;;0.10;0.10;;;;;;;12.13;81.57;100390.22;5053983;28;20136;-68
2023/09/10 02:56:17;;;;;;;0.10;0.10;;;;;;;12.18;81.66;100395.72;5057730;28;20577;-68
2023/09/10 02:58:44;;;;;;;;;;;;;;;12.15;81.43;100402.56;5047530;28;20566;-69
2023/09/10 03:01:11;;;;;;;0.10;0.10;;;;;;;12.11;81.25;100396.00;5014898;28;19925;-68
2023/09/10 03:03:37;;;;;;;0.10;0.10;;;;;;;12.09;81.12;100398.16;5048805;28;20504;-69
2023/09/10 03:06:13;;;;;;;0.10;0.10;;;;;;;11.97;81.50;100386.59;5052743;28;20056;-69
2023/09/10 03:08:42;;;;;;;0.10;0.10;;;;;;;12.03;82.08;100405.56;5059931;28;20132;-68
2023/09/10 03:11:09;;;;;;;0.10;0.10;;;;;;;12.04;82.10;100404.47;5032523;28;20041;-68
2023/09/10 03:13:37;;;;;;;0.10;0.10;;;;;;;12.11;81.89;100397.91;5052924;28;20538;-68
2023/09/10 03:16:04;;;;;;;0.10;0.10;;;;;;;12.11;82.04;100401.47;5052730;28;20580;-68
2023/09/10 03:18:35;;;;;;;0.10;0.10;;;;;;;12.15;81.83;100412.69;5067137;28;20059;-68
2023/09/10 03:21:03;;;;;;;0.10;0.10;;;;;;;12.16;81.79;100389.69;5045343;28;20049;-68
2023/09/10 03:23:32;;;;;;;0.10;0.10;;;;;;;12.19;81.38;100392.69;5036595;28;20048;-69
2023/09/10 03:25:58;;;;;;;0.10;0.10;;;;;;;12.16;81.73;100400.63;5068306;28;20048;-69
2023/09/10 03:28:25;;;;;;;0.10;0.10;;;;;;;12.14;82.06;100405.56;5050462;28;20083;-68
2023/09/10 03:30:57;;;;;;;0.10;0.10;;;;;;;12.15;81.99;100396.25;5049191;28;20044;-68
2023/09/10 03:33:24;;;;;;;0.10;0.10;;;;;;;12.17;81.93;100405.03;5048361;28;20036;-69
2023/09/10 03:35:52;;;;;;;0.10;0.10;;;;;;;12.17;81.88;100405.88;5069362;28;20139;-69
2023/09/10 03:38:19;;;;;;;0.10;0.10;;;;;;;12.20;81.86;100407.25;5062400;28;20048;-69
2023/09/10 03:40:48;;;;;;;0.10;0.10;;;;;;;12.23;81.82;100408.59;5055077;28;20056;-69
2023/09/10 03:43:17;;;;;;;0.10;0.10;;;;;;;12.23;81.93;100395.72;5065813;28;20040;-69
2023/09/10 03:45:45;;;;;;;0.10;0.10;;;;;;;12.22;81.76;100402.31;5050254;28;20503;-69
2023/09/10 03:48:12;;;;;;;0.10;0.10;;;;;;;12.23;81.63;100397.63;5047929;28;20170;-68
2023/09/10 03:50:40;;;;;;;0.10;0.10;;;;;;;12.22;81.91;100405.06;5047066;28;20045;-69
2023/09/10 03:53:12;;;;;;;0.10;0.10;;;;;;;12.20;81.46;100408.06;5034910;28;20143;-69
2023/09/10 03:55:40;;;;;;;;;;;;;;;12.16;81.73;100408.88;5047330;28;20045;-68
2023/09/10 03:58:10;;;;;;;0.10;0.10;;;;;;;12.08;81.31;100393.78;5045344;28;20039;-68
2023/09/10 04:00:38;;;;;;;0.10;0.10;;;;;;;12.15;81.78;100409.97;5030936;28;20132;-68
2023/09/10 04:03:06;;;;;;;0.10;0.10;;;;;;;12.18;81.71;100410.25;5020197;28;20044;-68
2023/09/10 04:05:32;;;;;;;0.30;0.10;;;;;;;12.24;81.82;100411.09;5060584;28;20529;-69
2023/09/10 04:07:59;;;;;;;0.10;0.10;;;;;;;12.28;81.76;100403.97;5049268;28;20041;-68
2023/09/10 04:10:27;;;;;;;0.10;0.10;;;;;;;12.28;81.93;100403.16;5028559;28;20062;-69
2023/09/10 04:12:56;;;;;;;0.10;0.10;;;;;;;12.27;81.75;100402.31;5065230;28;20041;-67
2023/09/10 04:15:24;;;;;;;0.10;0.10;;;;;;;12.29;81.56;100407.53;5049138;28;20041;-70
2023/09/10 04:17:50;;;;;;;0.10;0.10;;;;;;;12.29;81.47;100404.81;5067357;28;20125;-70
2023/09/10 04:20:19;;;;;;;0.10;0.10;;;;;;;12.28;81.57;100409.44;5062316;28;20052;-69
2023/09/10 04:22:47;;;;;;;0.10;0.10;;;;;;;12.23;81.85;100400.38;5033690;28;20044;-69
2023/09/10 04:25:13;;;;;;;0.10;0.10;;;;;;;12.25;81.72;100414.63;5045948;28;20056;-69
2023/09/10 04:27:42;;;;;;;0.10;0.10;;;;;;;12.25;81.68;100412.72;5030504;28;20059;-70
2023/09/10 04:30:11;;;;;;;0.10;0.10;;;;;;;12.29;81.83;100413.03;5048315;28;20049;-69
2023/09/10 04:32:40;;;;;;;0.10;0.10;;;;;;;12.32;81.55;100407.78;5054923;28;20056;-69
2023/09/10 04:35:08;;;;;;;0.10;0.10;;;;;;;12.34;81.61;100419.34;5063431;28;20048;-68
2023/09/10 04:37:35;;;;;;;0.10;0.10;;;;;;;12.35;81.21;100411.94;5048972;28;20057;-69
2023/09/10 04:40:06;;;;;;;0.10;0.10;;;;;;;12.37;81.20;100409.72;5061679;28;20110;-68
2023/09/10 04:42:34;;;;;;;0.10;0.10;;;;;;;12.40;81.05;100422.09;5026777;28;20080;-68
2023/09/10 04:45:02;;;;;;;0.10;0.10;;;;;;;12.42;80.81;100417.97;5030169;28;20049;-69
2023/09/10 04:47:31;;;;;;;0.10;0.10;;;;;;;12.40;80.98;100416.59;5032103;28;20148;-68
2023/09/10 04:50:00;;;;;;;0.10;0.10;;;;;;;12.39;81.16;100425.94;5058084;28;20048;-69
2023/09/10 04:52:28;;;;;;;0.10;0.10;;;;;;;12.42;81.08;100426.22;5042155;28;20049;-69
2023/09/10 04:54:55;;;;;;;0.10;0.10;;;;;;;12.45;81.06;100420.19;5028275;28;20053;-69
2023/09/10 04:57:22;;;;;;;0.10;0.10;;;;;;;12.47;80.65;100417.97;5061291;28;20046;-69
2023/09/10 04:59:48;;;;;;;0.10;0.10;;;;;;;12.43;80.63;100416.88;5043401;28;20110;-69
2023/09/10 05:02:15;;;;;;;0.10;0.10;;;;;;;12.45;80.40;100416.59;5045642;28;20045;-69
2023/09/10 05:04:42;;;;;;;0.10;0.10;;;;;;;12.41;80.29;100410.84;5052913;28;20040;-69
2023/09/10 05:07:12;;;;;;;0.10;0.10;;;;;;;12.38;80.44;100405.09;5065414;28;20439;-69
2023/09/10 05:09:39;;;;;;;0.10;0.10;;;;;;;12.40;80.52;100417.41;5027797;28;20060;-69
2023/09/10 05:12:06;;;;;;;0.20;0.20;;;;;;;12.37;80.88;100417.16;5029279;28;20595;-69
2023/09/10 05:14:35;;;;;;;0.10;0.10;;;;;;;12.40;80.75;100411.91;5063830;28;20051;-68
2023/09/10 05:17:03;;;;;;;0.10;0.10;;;;;;;12.47;80.55;100417.97;5048000;28;20049;-69
2023/09/10 05:19:30;;;;;;;0.10;0.10;;;;;;;12.50;80.75;100410.31;5050807;28;20495;-68
2023/09/10 05:21:59;;;;;;;0.20;0.20;;;;;;;12.53;80.51;100412.50;5059655;28;20106;-69
2023/09/10 05:24:28;;;;;;;0.10;0.10;;;;;;;12.52;80.53;100411.69;5061218;28;20047;-68
2023/09/10 05:26:55;;;;;;;0.10;0.10;;;;;;;12.53;80.20;100421.56;5042985;28;20068;-68
2023/09/10 05:29:21;;;;;;;0.10;0.10;;;;;;;12.55;80.24;100426.75;5030446;28;20053;-68
2023/09/10 05:31:49;;;;;;;0.10;0.10;;;;;;;12.43;80.32;100408.66;5031214;28;20060;-68
2023/09/10 05:34:16;;;;;;;0.20;0.20;;;;;;;12.65;80.25;100420.47;5057806;28;20051;-68
2023/09/10 05:36:42;;;;;;;;;;;;;;;12.71;80.24;100424.84;5066080;28;20094;-69
2023/09/10 05:39:10;;;;;;;0.10;0.10;;;;;;;12.74;79.40;100422.41;5039796;28;20001;-70
2023/09/10 05:41:38;;;;;;;0.10;0.10;;;;;;;12.79;79.48;100416.06;5067613;28;20049;-69
2023/09/10 05:44:05;;;;;;;0.10;0.10;;;;;;;12.75;79.57;100404.84;5054605;28;20055;-69
2023/09/10 05:46:33;;;;;;;0.10;0.10;;;;;;;12.82;79.42;100422.94;5063580;28;20048;-69
2023/09/10 05:48:59;;;;;;;0.10;0.10;;;;;;;12.79;79.59;100426.22;5048389;28;20563;-69
2023/09/10 05:51:26;;;;;;;0.10;0.10;;;;;;;12.76;79.58;100416.63;5030743;28;20053;-69
2023/09/10 05:53:53;;;;;;;0.10;0.10;;;;;;;12.79;79.39;100421.56;5055618;28;20307;-69
2023/09/10 05:56:21;;;;;;;0.10;0.10;;;;;;;12.83;79.43;100419.94;5048993;28;20049;-70
2023/09/10 05:58:49;;;;;;;;;;;;;;;12.86;79.15;100419.38;5051912;28;20060;-69
2023/09/10 06:01:16;;;;;;;0.10;0.10;;;;;;;12.87;78.59;100421.00;5034622;28;20148;-70
2023/09/10 06:03:43;;;;;;;0.15;0.15;;;;;;;12.89;78.80;100421.56;5059344;28;20044;-69
2023/09/10 06:06:11;;;;;;;0.10;0.10;;;;;;;12.93;79.06;100424.59;5058220;28;20061;-69
2023/09/10 06:08:38;;;;;;;0.10;0.10;;;;;;;12.96;78.94;100423.22;5048947;28;20049;-69
2023/09/10 06:11:04;;;;;;;0.10;0.10;;;;;;;12.97;78.78;100422.94;5050279;28;20064;-68
2023/09/10 06:13:30;;;;;;;0.10;0.10;;;;;;;12.98;78.51;100423.75;5032435;28;20798;-69
2023/09/10 06:15:59;;;;;;;0.10;0.10;;;;;;;12.99;78.48;100425.41;5048680;28;20547;-68
2023/09/10 06:18:25;;;;;;;0.10;0.10;;;;;;;13.01;78.63;100424.00;5053015;28;20060;-69
2023/09/10 06:20:51;;;;;;;0.20;0.20;;;;;;;13.02;78.34;100431.16;5031794;28;20631;-69
2023/09/10 06:23:17;;;;;;;0.20;0.20;;;;;;;13.03;78.17;100426.50;5032285;28;20056;-70
2023/09/10 06:25:45;;;;;;;0.20;0.20;;;;;;;13.08;77.82;100423.72;5048210;28;20057;-68
2023/09/10 06:28:12;;;;;;;0.10;0.10;;;;;;;13.10;77.88;100432.50;5048348;28;20600;-69
2023/09/10 06:30:39;;;;;;;0.10;0.10;;;;;;;13.05;77.91;100433.38;5030890;28;20519;-69
2023/09/10 06:33:06;;;;;;;0.20;0.20;;;;;;;13.05;78.10;100436.09;5045864;28;20064;-69
2023/09/10 06:35:34;;;;;;;0.20;0.20;;;;;;;13.05;78.10;100433.38;5049387;28;20049;-69
2023/09/10 06:38:01;;;;;;;0.20;0.20;;;;;;;13.04;77.83;100434.47;5049948;28;20342;-69
2023/09/10 06:40:27;;;;;;;0.20;0.20;;;;;;;13.03;77.73;100426.50;5049391;28;20466;-69
2023/09/10 06:42:54;;;;;;;;;;;;;;;13.00;77.81;100422.38;5033479;28;20041;-69
2023/09/10 06:45:34;;;;;;;0.20;0.20;;;;;;;13.00;77.28;100425.09;5049477;28;19928;-69
2023/09/10 06:48:00;;;;;;;0.10;0.10;;;;;;;13.01;77.26;100429.50;5031584;28;20073;-69
2023/09/10 06:50:28;;;;;;;0.20;0.20;;;;;;;13.02;77.28;100433.88;5052089;28;20045;-69
2023/09/10 06:52:54;;;;;;;;;;;;;;;13.06;77.39;100431.41;5052807;28;20090;-69
2023/09/10 06:55:20;;;;;;;0.20;0.20;;;;;;;13.10;76.80;100439.94;5047201;28;19928;-69
2023/09/10 06:57:46;;;;;;;0.20;0.20;;;;;;;13.13;77.11;100442.97;5046647;28;20051;-69
2023/09/10 07:00:13;;;;;;;0.20;0.20;;;;;;;13.14;77.36;100439.13;5049088;28;20618;-69
2023/09/10 07:02:39;;;;;;;0.20;0.20;;;;;;;13.17;77.32;100441.31;5051998;28;20064;-69
2023/09/10 07:05:07;;;;;;;0.20;0.20;;;;;;;13.18;77.29;100442.09;5057517;28;20457;-69
2023/09/10 07:07:34;;;;;;;;;;;;;;;13.19;76.86;100439.09;5073688;28;20527;-69
2023/09/10 07:10:00;;;;;;;;;;;;;;;13.18;76.53;100442.94;5075217;28;19974;-68
2023/09/10 07:12:26;;;;;;;0.20;0.20;;;;;;;13.18;76.23;100437.44;5077655;28;20391;-68
2023/09/10 07:14:52;;;;;;;0.20;0.20;;;;;;;13.20;76.49;100437.19;5075724;28;20048;-68
2023/09/10 07:17:19;;;;;;;0.10;0.10;;;;;;;13.25;76.28;100430.84;5075148;28;20647;-69
2023/09/10 07:19:48;;;;;;;0.20;0.20;;;;;;;13.26;76.11;100433.31;5072534;28;20090;-69
2023/09/10 07:22:16;;;;;;;0.10;0.10;;;;;;;13.27;75.75;100428.66;5074512;28;20047;-69
2023/09/10 07:24:46;;;;;;;0.10;0.10;;;;;;;13.33;75.48;100436.59;5075546;28;20116;-68
2023/09/10 07:27:13;;;;;;;0.10;0.10;;;;;;;13.36;75.30;100426.97;5072319;28;20044;-68
2023/09/10 07:29:40;;;;;;;0.10;0.10;;;;;;;13.41;75.10;100432.47;5080708;28;20077;-68
2023/09/10 07:32:07;;;;;;;0.10;0.10;;;;;;;13.40;74.71;100424.50;5069789;28;20048;-68
2023/09/10 07:34:34;;;;;;;0.20;0.20;;;;;;;13.49;74.53;100435.78;5076192;28;20059;-68
2023/09/10 07:37:01;;;;;;;0.10;0.10;;;;;;;13.55;74.35;100434.66;5040359;28;20047;-68
2023/09/10 07:39:29;;;;;;;0.20;0.20;;;;;;;13.57;74.10;100436.03;5075911;28;20404;-68
2023/09/10 07:41:59;;;;;;;0.20;0.20;;;;;;;13.64;74.00;100433.00;5076342;28;20064;-68
2023/09/10 07:44:26;;;;;;;0.17;0.17;;;;;;;13.67;73.54;100434.38;5051588;28;20040;-68
2023/09/10 07:46:54;;;;;;;0.20;0.20;;;;;;;13.70;73.40;100442.03;5056615;28;20043;-68
2023/09/10 07:49:22;;;;;;;0.20;0.20;;;;;;;13.70;73.19;100436.53;5052250;28;20142;-70
2023/09/10 07:51:48;;;;;;;;;;;;;;;13.68;73.36;100436.81;5076749;28;20048;-68
2023/09/10 07:54:15;;;;;;;0.20;0.20;;;;;;;13.62;73.09;100437.94;5064551;28;20023;-69
2023/09/10 07:56:42;;;;;;;;;;;;;;;13.62;73.27;100443.44;5047554;28;20045;-68
2023/09/10 07:59:11;;;;;;;0.10;0.10;;;;;;;13.61;73.17;100439.84;5050143;28;20007;-69
2023/09/10 08:01:39;;;;;;;0.20;0.20;;;;;;;13.54;72.99;100436.59;5069222;28;20052;-70
2023/09/10 08:04:07;;;;;;;0.13;0.13;;;;;;;13.53;73.34;100428.63;5047370;28;20052;-68
2023/09/10 08:06:35;;;;;;;0.13;0.13;;;;;;;13.55;73.32;100434.66;5068279;28;20058;-68
2023/09/10 08:09:03;;;;;;;0.20;0.20;;;;;;;13.57;72.94;100432.44;5052855;28;20530;-69
2023/09/10 08:11:32;;;;;;;0.10;0.10;;;;;;;13.59;73.12;100430.25;5069953;28;20055;-69
2023/09/10 08:14:05;;;;;;;0.20;0.20;;;;;;;13.61;73.16;100426.13;5078687;28;20049;-69
2023/09/10 08:16:38;;;;;;;0.20;0.20;;;;;;;13.68;72.85;100428.56;5058249;28;20052;-69
2023/09/10 08:19:05;;;;;;;0.20;0.20;;;;;;;13.76;72.73;100440.91;5029024;28;20049;-69
2023/09/10 08:21:32;;;;;;;0.20;0.20;;;;;;;13.51;72.97;100392.38;5048534;28;20044;-69
2023/09/10 08:23:59;;;;;;;0.20;0.20;;;;;;;13.83;72.59;100435.94;5032065;28;20055;-69
2023/09/10 08:26:29;;;;;;;0.20;0.20;;;;;;;13.85;72.19;100438.41;5044851;28;20075;-69
2023/09/10 08:28:56;;;;;;;0.20;0.20;;;;;;;13.81;72.32;100421.63;5037959;28;20450;-69
2023/09/10 08:31:24;;;;;;;0.20;0.20;;;;;;;13.84;72.40;100432.09;5035200;28;20049;-69
2023/09/10 08:33:53;;;;;;;0.20;0.20;;;;;;;13.84;72.30;100437.59;5032774;28;20156;-69
2023/09/10 08:36:23;;;;;;;0.20;0.20;;;;;;;13.82;72.42;100431.56;5034879;28;20409;-69
2023/09/10 08:38:54;;;;;;;0.20;0.20;;;;;;;13.81;72.12;100426.31;5002489;28;20056;-69
2023/09/10 08:41:29;;;;;;;0.20;0.20;;;;;;;13.78;72.72;100424.94;5034249;28;20234;-70
2023/09/10 08:43:58;;;;;;;0.13;0.13;;;;;;;13.83;72.44;100419.44;5016321;28;20056;-69
2023/09/10 08:46:31;;;;;;;0.20;0.20;;;;;;;13.86;72.42;100424.38;5033724;28;20056;-69
2023/09/10 08:49:01;;;;;;;0.10;0.10;;;;;;;13.90;72.02;100419.16;5028994;28;20053;-69
2023/09/10 08:51:32;;;;;;;0.10;0.10;;;;;;;13.95;71.72;100432.03;5045944;28;20488;-69
2023/09/10 08:54:01;;;;;;;0.20;0.20;;;;;;;13.99;71.73;100427.63;5049179;28;20048;-68
2023/09/10 08:56:29;;;;;;;0.20;0.20;;;;;;;14.06;71.22;100414.38;5045812;28;20048;-69
2023/09/10 08:58:57;;;;;;;0.20;0.20;;;;;;;14.17;70.77;100417.88;5046749;28;20080;-68
2023/09/10 09:01:24;;;;;;;0.20;0.20;;;;;;;14.23;69.99;100415.94;5046740;28;20111;-68
2023/09/10 09:03:51;;;;;;;0.20;0.20;;;;;;;14.33;69.49;100418.63;5046383;28;20149;-69
2023/09/10 09:06:20;;;;;;;0.20;0.20;;;;;;;14.31;69.31;100413.41;5031589;28;20080;-69
2023/09/10 09:08:50;;;;;;;0.20;0.20;;;;;;;14.41;69.23;100409.75;5050342;28;20095;-69
2023/09/10 09:11:18;;;;;;;0.20;0.20;;;;;;;14.47;68.82;100413.31;5052169;28;20057;-69
2023/09/10 09:13:49;;;;;;;0.20;0.20;;;;;;;14.57;68.97;100412.41;5049340;28;20060;-69
2023/09/10 09:16:18;;;;;;;0.20;0.20;;;;;;;14.69;68.60;100414.81;5037070;28;20105;-68
2023/09/10 09:18:47;;;;;;;0.20;0.20;;;;;;;14.84;67.98;100409.22;5052285;28;20064;-68
2023/09/10 09:21:19;;;;;;;0.20;0.20;;;;;;;14.97;67.23;100410.47;5068097;28;20355;-69
2023/09/10 09:23:51;;;;;;;0.20;0.20;;;;;;;15.03;67.57;100419.50;5070083;28;20071;-69
2023/09/10 09:26:18;;;;;;;0.20;0.20;;;;;;;15.07;67.43;100409.53;5045833;28;20056;-69
2023/09/10 09:28:46;;;;;;;0.20;0.20;;;;;;;15.10;67.03;100410.91;5064548;28;20056;-68
2023/09/10 09:31:13;;;;;;;0.20;0.20;;;;;;;15.12;67.12;100417.72;5069343;28;20059;-68
2023/09/10 09:33:43;;;;;;;0.30;0.30;;;;;;;15.24;66.95;100422.03;5060734;28;20037;-69
2023/09/10 09:36:13;;;;;;;0.50;0.50;;;;;;;15.60;66.32;100416.13;5049383;28;20061;-69
2023/09/10 09:38:45;;;;;;;0.50;0.50;;;;;;;16.72;63.19;100403.03;5035741;28;20056;-69
2023/09/10 09:41:14;;;;;;;0.40;0.40;;;;;;;17.98;58.74;100406.72;5058682;28;20055;-69
2023/09/10 09:43:44;;;;;;;0.50;0.50;;;;;;;19.44;54.24;100401.25;5065009;28;20043;-69
2023/09/10 09:46:11;;;;;;;0.50;0.50;;;;;;;20.73;50.44;100392.94;5064198;28;20052;-68
2023/09/10 09:48:39;;;;;;;0.50;0.50;;;;;;;21.89;47.06;100398.56;5051399;28;20092;-69
2023/09/10 09:51:09;;;;;;;;;;;;;;;22.34;44.62;100387.94;5070478;28;20036;-69
2023/09/10 09:53:43;;;;;;;0.50;0.50;;;;;;;22.97;43.56;100383.41;5034786;28;19924;-70
2023/09/10 09:56:11;;;;;;;0.50;0.50;;;;;;;23.63;41.27;100381.63;5042952;28;20094;-69
2023/09/10 09:58:39;;;;;;;0.50;0.50;;;;;;;24.11;40.10;100379.13;5061711;28;20633;-69
2023/09/10 10:01:08;;;;;;;0.38;0.38;;;;;;;24.52;39.12;100373.50;5044558;28;20106;-69
2023/09/10 10:03:37;;;;;;;0.30;0.30;;;;;;;24.36;39.65;100379.06;5047865;28;20041;-70
2023/09/10 10:06:04;;;;;;;0.50;0.50;;;;;;;23.64;40.57;100372.06;5048824;28;20079;-69
2023/09/10 10:08:32;;;;;;;0.40;0.40;;;;;;;24.64;38.98;100367.88;5058505;28;20037;-69
2023/09/10 10:11:05;;;;;;;0.50;0.50;;;;;;;25.31;37.74;100365.59;5053255;28;20067;-70
2023/09/10 10:13:33;;;;;;;0.50;0.50;;;;;;;25.98;36.19;100361.97;5068660;28;20118;-69
2023/09/10 10:16:03;;;;;;;0.50;0.50;;;;;;;26.35;35.57;100368.38;5066861;28;20049;-69
2023/09/10 10:18:33;;;;;;;0.50;0.50;;;;;;;26.42;35.47;100363.72;5050845;28;21265;-69
2023/09/10 10:21:03;;;;;;;0.50;0.50;;;;;;;26.57;35.20;100350.78;5061037;28;20090;-69
2023/09/10 10:23:30;;;;;;;0.40;0.40;;;;;;;26.80;34.41;100354.78;5043678;28;20059;-69
2023/09/10 10:26:04;;;;;;;0.40;0.40;;;;;;;26.57;34.32;100352.78;5048201;28;20546;-69
2023/09/10 10:28:37;;;;;;;0.40;0.40;;;;;;;26.29;34.79;100351.03;5031867;28;20114;-69
2023/09/10 10:31:11;;;;;;;0.50;0.50;;;;;;;26.46;35.26;100353.38;5053725;28;20099;-69
2023/09/10 10:33:49;;;;;;;0.40;0.40;;;;;;;27.46;32.89;100343.47;5067638;28;20044;-69
2023/09/10 10:36:26;;;;;;;0.50;0.50;;;;;;;28.03;32.12;100343.53;5067717;28;20147;-69
2023/09/10 10:38:56;;;;;;;0.50;0.50;;;;;;;28.39;31.68;100337.53;5044496;28;20049;-69
2023/09/10 10:41:28;;;;;;;0.50;0.50;;;;;;;28.59;30.98;100340.19;5064809;28;20147;-69
2023/09/10 10:44:06;;;;;;;0.60;0.60;;;;;;;29.01;30.64;100324.91;5057818;28;20045;-71
2023/09/10 10:46:36;;;;;;;0.50;0.50;;;;;;;28.82;30.44;100325.16;5064480;28;20044;-69
2023/09/10 10:49:05;;;;;;;0.50;0.50;;;;;;;28.68;30.94;100320.19;5063298;28;20049;-69
2023/09/10 10:51:37;;;;;;;0.70;0.70;;;;;;;28.37;31.38;100323.06;5056751;28;20175;-69
2023/09/10 10:54:07;;;;;;;0.80;0.80;;;;;;;28.60;31.16;100316.50;5061980;28;20056;-69
2023/09/10 10:56:35;;;;;;;0.75;0.75;;;;;;;29.23;29.95;100322.28;5034780;28;20079;-70
2023/09/10 10:59:05;;;;;;;0.80;0.80;;;;;;;29.45;29.68;100308.38;5062154;28;20049;-70
2023/09/10 11:01:33;;;;;;;0.90;0.90;;;;;;;29.88;28.75;100299.34;5067867;28;20392;-70
2023/09/10 11:04:19;;;;;;;0.90;0.90;;;;;;;29.99;28.79;100316.31;5046601;28;20094;-71
2023/09/10 11:07:16;;;;;;;1.00;1.00;;;;;;;30.12;28.37;100311.94;5054992;28;20076;-71
2023/09/10 11:09:46;;;;;;;0.90;0.90;;;;;;;30.54;27.71;100306.03;5066765;28;20048;-70
2023/09/10 11:12:13;;;;;;;0.73;0.73;;;;;;;30.46;28.29;100301.59;5056285;28;20253;-70
2023/09/10 11:15:10;;;;;;;0.90;0.90;;;;;;;30.97;27.30;100303.28;5057321;28;20079;-71
2023/09/10 11:17:37;;;;;;;1.00;1.00;;;;;;;31.49;26.91;100296.38;5033948;28;20049;-71
2023/09/10 11:20:04;;;;;;;;;;;;;;;31.95;26.04;100294.63;5062640;28;20135;-71
2023/09/10 11:23:05;;;;;;;1.02;1.02;;;;;;;32.23;25.59;100292.06;5031351;28;19930;-71
2023/09/10 11:25:32;;;;;;;1.08;1.08;;;;;;;31.96;25.58;100284.13;5066355;28;20640;-71
2023/09/10 11:28:04;;;;;;;1.05;1.05;;;;;;;32.17;25.92;100297.34;5041924;28;20044;-71
2023/09/10 11:30:34;;;;;;;1.10;1.10;;;;;;;32.61;25.15;100291.44;5065176;28;20571;-70
2023/09/10 11:33:30;;;;;;;1.10;1.10;;;;;;;32.84;24.76;100279.53;5041476;28;20049;-71
2023/09/10 11:36:00;;;;;;;1.10;1.10;;;;;;;33.07;24.23;100284.63;5048067;28;20056;-71